Time;durP1;ratioP1;P1;durP2;ratioP2;P2;SDS_P1;SDS_P2;PMS_P1;PMS_P2;Temp;Humidity;BMP_temperature;BMP_pressure;BME280_temperature;BME280_humidity;BME280_pressure;Samples;Min_cycle;Max_cycle;Signal;HPM_P1;HPM_P2
2021/03/15 00:02:22;;;;;;;2.40;1.10;;;;;;;25.30;30.50;96334.44;4975960;28;20042;-32
2021/03/15 00:04:47;;;;;;;2.80;1.02;;;;;;;25.31;30.47;96340.53;4971787;28;20041;-31
2021/03/15 00:07:13;;;;;;;1.77;1.00;;;;;;;25.30;30.51;96331.84;4973143;28;20022;-31
2021/03/15 00:09:38;;;;;;;2.35;1.30;;;;;;;25.30;30.66;96339.69;4970550;28;20022;-31
2021/03/15 00:12:04;;;;;;;3.22;1.00;;;;;;;25.30;30.69;96342.31;4969005;28;20042;-31
2021/03/15 00:14:29;;;;;;;4.32;1.05;;;;;;;25.29;30.48;96332.75;4967884;28;20042;-32
2021/03/15 00:16:55;;;;;;;1.90;1.20;;;;;;;25.29;30.70;96330.13;4969365;28;20597;-36
2021/03/15 00:19:20;;;;;;;2.03;1.05;;;;;;;25.28;30.59;96336.31;4971216;28;20022;-31
2021/03/15 00:21:46;;;;;;;1.55;0.80;;;;;;;25.29;30.64;96337.16;4973113;28;20034;-32
2021/03/15 00:24:11;;;;;;;1.83;1.17;;;;;;;25.28;30.48;96328.44;4955923;28;20528;-31
2021/03/15 00:26:37;;;;;;;1.25;0.73;;;;;;;25.28;30.49;96325.00;4969622;28;20042;-29
2021/03/15 00:29:03;;;;;;;2.25;0.82;;;;;;;25.28;30.59;96327.63;4981525;28;20038;-31
2021/03/15 00:31:28;;;;;;;2.28;1.00;;;;;;;25.27;30.46;96329.38;4981123;28;20042;-31
2021/03/15 00:33:53;;;;;;;1.60;0.80;;;;;;;25.27;30.46;96318.88;4976931;28;20030;-30
2021/03/15 00:36:19;;;;;;;1.30;0.88;;;;;;;25.28;30.56;96319.75;4983733;28;20026;-31
2021/03/15 00:38:44;;;;;;;1.48;0.90;;;;;;;25.27;30.55;96316.25;4979559;28;20124;-30
2021/03/15 00:41:10;;;;;;;1.73;1.10;;;;;;;25.25;30.56;96317.28;4985853;28;20109;-31
2021/03/15 00:43:35;;;;;;;2.08;0.93;;;;;;;25.27;30.35;96313.66;4966870;28;20117;-33
2021/03/15 00:46:00;;;;;;;4.35;1.13;;;;;;;25.28;30.45;96317.94;4975283;28;20046;-30
2021/03/15 00:48:26;;;;;;;2.15;0.75;;;;;;;25.27;30.63;96311.03;4977322;28;20633;-31
2021/03/15 00:50:51;;;;;;;2.80;0.88;;;;;;;25.28;30.42;96314.50;4979994;28;20065;-30
2021/03/15 00:53:17;;;;;;;1.88;0.88;;;;;;;25.27;30.37;96316.25;4978416;28;20026;-31
2021/03/15 00:55:42;;;;;;;0.90;0.70;;;;;;;25.27;30.52;96310.16;4970292;28;20061;-30
2021/03/15 00:58:07;;;;;;;1.17;0.85;;;;;;;25.23;30.63;96301.66;4979503;28;20030;-34
2021/03/15 01:00:37;;;;;;;1.00;0.60;;;;;;;25.26;30.60;96300.63;4976448;28;20054;-29
2021/03/15 01:03:03;;;;;;;1.63;0.77;;;;;;;25.27;30.36;96302.28;4980172;28;20483;-30
2021/03/15 01:05:43;;;;;;;1.75;1.02;;;;;;;25.25;30.55;96302.38;4999586;28;20033;-30
2021/03/15 01:08:09;;;;;;;1.88;1.00;;;;;;;25.24;30.43;96292.84;4971259;28;20058;-33
2021/03/15 01:10:35;;;;;;;3.92;0.70;;;;;;;25.24;30.47;96298.09;4965298;28;20396;-32
2021/03/15 01:13:01;;;;;;;1.52;0.80;;;;;;;25.23;30.64;96301.66;4977561;28;20062;-32
2021/03/15 01:15:27;;;;;;;0.60;0.60;;;;;;;25.23;30.51;96306.88;4980580;28;20068;-31
2021/03/15 01:17:52;;;;;;;1.33;0.77;;;;;;;25.22;30.43;96296.47;4968946;28;20496;-31
2021/03/15 01:20:18;;;;;;;0.93;0.63;;;;;;;25.23;30.35;96301.66;4979513;28;20022;-31
2021/03/15 01:22:43;;;;;;;1.30;0.70;;;;;;;25.23;30.44;96306.03;4969417;28;20149;-31
2021/03/15 01:25:09;;;;;;;2.20;0.80;;;;;;;25.22;30.44;96307.81;4972986;28;20034;-31
2021/03/15 01:27:34;;;;;;;0.93;0.70;;;;;;;25.22;30.49;96307.81;4977745;28;20045;-31
2021/03/15 01:30:00;;;;;;;0.98;0.65;;;;;;;25.24;30.27;96307.75;4974091;28;20018;-30
2021/03/15 01:32:25;;;;;;;1.58;0.57;;;;;;;25.22;30.39;96297.34;4977561;28;20045;-31
2021/03/15 01:34:51;;;;;;;2.15;0.70;;;;;;;25.23;30.44;96298.16;4980843;28;20029;-31
2021/03/15 01:37:16;;;;;;;2.25;0.73;;;;;;;25.22;30.37;96294.72;4969402;28;20529;-31
2021/03/15 01:39:41;;;;;;;1.05;0.73;;;;;;;25.22;30.23;96294.72;4983707;28;20053;-32
2021/03/15 01:42:07;;;;;;;0.77;0.50;;;;;;;25.23;30.45;96293.78;4976108;28;20038;-30
2021/03/15 01:44:33;;;;;;;2.22;0.88;;;;;;;25.23;30.47;96295.53;4979242;28;20080;-31
2021/03/15 01:46:58;;;;;;;1.60;0.70;;;;;;;25.23;30.28;96290.31;4994085;28;20038;-28
2021/03/15 01:49:23;;;;;;;1.73;0.73;;;;;;;25.22;30.26;96284.22;4977008;28;20037;-32
2021/03/15 01:51:49;;;;;;;2.30;0.57;;;;;;;25.22;30.18;96283.38;4975248;28;20108;-31
2021/03/15 01:54:15;;;;;;;1.63;0.80;;;;;;;25.21;30.36;96279.94;4986771;28;20027;-31
2021/03/15 01:56:41;;;;;;;0.95;0.70;;;;;;;25.21;30.35;96277.31;4962868;28;20114;-31
2021/03/15 01:59:09;;;;;;;0.63;0.57;;;;;;;25.21;30.35;96269.44;4955897;28;20034;-31
2021/03/15 02:01:35;;;;;;;1.23;0.70;;;;;;;25.21;30.30;96264.19;4974290;28;20069;-32
2021/03/15 02:04:00;;;;;;;0.93;0.55;;;;;;;25.20;30.34;96254.63;4987571;28;20155;-30
2021/03/15 02:06:26;;;;;;;0.70;0.57;;;;;;;25.20;30.21;96254.63;4977542;28;20049;-32
2021/03/15 02:08:51;;;;;;;1.25;0.60;;;;;;;25.20;30.29;96249.38;4979153;28;20045;-30
2021/03/15 02:11:25;;;;;;;0.82;0.45;;;;;;;25.20;30.19;96243.31;4976584;28;20081;-31
2021/03/15 02:14:00;;;;;;;1.38;0.50;;;;;;;25.20;30.36;96240.69;4980124;28;20022;-31
2021/03/15 02:16:34;;;;;;;1.05;0.55;;;;;;;25.19;30.41;96237.19;4991566;28;20046;-31
2021/03/15 02:19:15;;;;;;;0.98;0.63;;;;;;;25.17;30.08;96233.84;4945843;28;20093;-31
2021/03/15 02:22:18;;;;;;;1.20;0.60;;;;;;;25.18;30.22;96230.28;4991359;28;20120;-31
2021/03/15 02:25:15;;;;;;;1.20;0.50;;;;;;;25.18;30.39;96225.84;4975736;28;20062;-30
2021/03/15 02:28:14;;;;;;;2.70;0.60;;;;;;;25.17;30.14;96215.50;4981889;28;20113;-31
2021/03/15 02:31:03;;;;;;;0.93;0.60;;;;;;;25.17;30.16;96215.50;4977463;28;20066;-30
2021/03/15 02:33:34;;;;;;;1.23;0.77;;;;;;;25.16;30.27;96205.91;4981317;28;20061;-31
2021/03/15 02:36:00;;;;;;;1.52;0.70;;;;;;;25.16;30.26;96208.53;4975851;28;20038;-33
2021/03/15 02:38:25;;;;;;;1.60;0.60;;;;;;;25.15;30.18;96199.00;4964734;28;20079;-30
2021/03/15 02:40:56;;;;;;;1.48;0.60;;;;;;;25.15;30.34;96193.75;4963987;28;20054;-32
2021/03/15 02:43:29;;;;;;;1.40;0.70;;;;;;;25.14;30.14;96189.44;4989799;28;20026;-29
2021/03/15 02:46:08;;;;;;;1.60;0.50;;;;;;;25.14;30.10;96181.56;4964033;28;20573;-31
2021/03/15 02:48:34;;;;;;;1.02;0.50;;;;;;;25.14;30.41;96187.66;4939693;28;20491;-32
2021/03/15 02:51:00;;;;;;;0.95;0.60;;;;;;;25.14;30.18;96178.97;4986328;28;20022;-31
2021/03/15 02:53:26;;;;;;;2.10;0.47;;;;;;;25.15;30.13;96183.25;4971575;28;20032;-33
2021/03/15 02:55:56;;;;;;;1.75;0.52;;;;;;;25.14;30.19;96189.44;4980857;28;20096;-30
2021/03/15 02:58:21;;;;;;;0.85;0.52;;;;;;;25.15;30.15;96185.88;4951957;28;20678;-31
2021/03/15 03:00:47;;;;;;;3.10;0.50;;;;;;;25.15;30.20;96183.25;4969662;28;20057;-31
2021/03/15 03:03:12;;;;;;;0.63;0.32;;;;;;;25.15;30.34;96183.25;4975317;28;20030;-32
2021/03/15 03:05:37;;;;;;;0.90;0.60;;;;;;;25.15;30.13;96167.53;4997932;28;20049;-30
2021/03/15 03:08:03;;;;;;;0.77;0.32;;;;;;;25.14;30.19;96155.34;4951106;28;20442;-30
2021/03/15 03:10:28;;;;;;;0.60;0.45;;;;;;;25.13;30.03;96154.50;4989498;28;20445;-35
2021/03/15 03:12:54;;;;;;;0.65;0.45;;;;;;;25.12;30.28;96158.06;4951918;28;20603;-31
2021/03/15 03:15:22;;;;;;;1.75;0.68;;;;;;;25.14;30.17;96152.75;4989875;28;20027;-31
2021/03/15 03:17:47;;;;;;;1.33;0.52;;;;;;;25.12;30.19;96147.59;4949909;28;20066;-30
2021/03/15 03:20:14;;;;;;;1.15;0.40;;;;;;;25.12;30.12;96138.88;4963436;28;20038;-31
2021/03/15 03:22:41;;;;;;;0.65;0.50;;;;;;;25.12;30.10;96131.00;4968609;28;20058;-30
2021/03/15 03:25:10;;;;;;;2.70;0.70;;;;;;;25.13;30.23;96132.72;4981999;28;20022;-31
2021/03/15 03:27:37;;;;;;;1.30;0.50;;;;;;;25.12;30.36;96125.75;4945465;28;21391;-31
2021/03/15 03:30:05;;;;;;;0.57;0.40;;;;;;;25.12;30.08;96123.13;4960058;28;20120;-32
2021/03/15 03:32:30;;;;;;;0.93;0.50;;;;;;;25.10;30.14;96123.25;4972177;28;20506;-30
2021/03/15 03:34:55;;;;;;;1.10;0.43;;;;;;;25.11;30.25;96129.31;4981582;28;20054;-30
2021/03/15 03:37:21;;;;;;;2.33;0.70;;;;;;;25.11;30.00;96124.06;4975210;28;20023;-30
2021/03/15 03:39:46;;;;;;;0.82;0.40;;;;;;;25.09;30.29;96120.72;4980420;28;20039;-32
2021/03/15 03:42:12;;;;;;;1.13;0.68;;;;;;;25.09;30.03;96118.91;4969161;28;20309;-31
2021/03/15 03:44:37;;;;;;;1.25;0.45;;;;;;;25.08;30.29;96114.63;4982393;28;20030;-31
2021/03/15 03:47:03;;;;;;;2.03;0.70;;;;;;;25.10;30.05;96119.78;4985535;28;20541;-31
2021/03/15 03:49:28;;;;;;;2.75;0.70;;;;;;;25.10;30.07;96119.78;4975463;28;20037;-32
2021/03/15 03:51:58;;;;;;;1.10;0.40;;;;;;;25.09;30.32;96115.47;4999388;28;20787;-30
2021/03/15 03:54:29;;;;;;;0.60;0.38;;;;;;;25.09;30.14;96120.72;4977490;28;20030;-31
2021/03/15 03:57:08;;;;;;;0.40;0.30;;;;;;;25.08;30.34;96119.88;4989294;28;20022;-31
2021/03/15 03:59:34;;;;;;;1.75;0.50;;;;;;;25.08;30.31;96114.63;4978576;28;20081;-30
2021/03/15 04:02:02;;;;;;;1.80;0.40;;;;;;;25.09;30.24;96118.09;4973406;28;20039;-32
2021/03/15 04:04:28;;;;;;;0.85;0.40;;;;;;;25.07;30.28;96106.84;4983478;28;20037;-31
2021/03/15 04:06:53;;;;;;;3.65;1.00;;;;;;;25.07;30.08;96098.97;4980676;28;20414;-32
2021/03/15 04:09:28;;;;;;;3.22;0.63;;;;;;;25.05;30.10;96097.31;4993481;28;20030;-30
2021/03/15 04:11:54;;;;;;;1.40;0.60;;;;;;;25.05;30.08;96099.91;4996184;28;20502;-31
2021/03/15 04:14:23;;;;;;;1.60;0.50;;;;;;;25.05;30.08;96096.44;4964611;28;20037;-31
2021/03/15 04:16:48;;;;;;;1.85;0.32;;;;;;;25.04;30.31;96095.63;4953492;28;20068;-31
2021/03/15 04:19:14;;;;;;;1.23;0.50;;;;;;;25.03;30.27;96096.56;4966580;28;20030;-31
2021/03/15 04:21:39;;;;;;;1.88;0.40;;;;;;;25.04;30.19;96100.88;4968935;28;20027;-30
2021/03/15 04:24:05;;;;;;;1.30;0.50;;;;;;;25.05;30.18;96099.91;4966738;28;20116;-29
2021/03/15 04:26:31;;;;;;;0.95;0.50;;;;;;;25.04;30.48;96098.25;4969312;28;20030;-30
2021/03/15 04:28:56;;;;;;;2.55;0.55;;;;;;;25.04;30.11;96098.25;4948279;28;21049;-32
2021/03/15 04:31:22;;;;;;;1.67;0.47;;;;;;;25.04;30.18;96082.53;4973785;28;20066;-31
2021/03/15 04:33:48;;;;;;;0.38;0.38;;;;;;;25.04;30.45;96077.28;4972138;28;20030;-32
2021/03/15 04:36:17;;;;;;;0.82;0.40;;;;;;;25.03;30.42;96070.34;4981940;28;20490;-32
2021/03/15 04:38:42;;;;;;;0.30;0.30;;;;;;;25.04;30.23;96066.78;4965114;28;20505;-32
2021/03/15 04:41:08;;;;;;;0.85;0.40;;;;;;;25.04;30.24;96058.94;4964819;28;20035;-31
2021/03/15 04:43:34;;;;;;;0.88;0.30;;;;;;;25.04;30.09;96051.06;4949187;28;20605;-32
2021/03/15 04:46:00;;;;;;;1.02;0.50;;;;;;;25.03;30.13;96052.00;4947142;28;20049;-31
2021/03/15 04:48:27;;;;;;;0.75;0.38;;;;;;;25.03;30.50;96044.13;4964605;28;20026;-30
2021/03/15 04:50:57;;;;;;;0.65;0.32;;;;;;;25.02;30.36;96046.84;4964962;28;20044;-31
2021/03/15 04:53:22;;;;;;;2.20;0.40;;;;;;;25.02;30.22;96047.69;4947022;28;20033;-30
2021/03/15 04:55:48;;;;;;;1.02;0.40;;;;;;;25.03;30.08;96044.13;4962837;28;20027;-29
2021/03/15 04:58:14;;;;;;;0.43;0.30;;;;;;;25.03;30.31;96041.53;4959222;28;20054;-30
2021/03/15 05:00:41;;;;;;;0.50;0.50;;;;;;;25.02;30.22;96037.19;4961257;28;20529;-35
2021/03/15 05:03:08;;;;;;;0.80;0.32;;;;;;;25.02;30.34;96039.00;4978299;28;20534;-34
2021/03/15 05:05:34;;;;;;;0.35;0.30;;;;;;;25.02;30.42;96041.59;4962852;28;20022;-32
2021/03/15 05:07:59;;;;;;;1.80;0.73;;;;;;;25.00;30.21;96039.06;4968105;28;20129;-30
2021/03/15 05:10:25;;;;;;;0.30;0.30;;;;;;;25.02;30.16;96039.00;4961837;28;20089;-31
2021/03/15 05:12:50;;;;;;;0.70;0.30;;;;;;;25.02;30.34;96036.38;4935406;28;20798;-31
2021/03/15 05:15:16;;;;;;;1.08;0.40;;;;;;;25.02;30.20;96023.25;4979186;28;20039;-31
2021/03/15 05:17:41;;;;;;;0.70;0.30;;;;;;;25.02;30.37;96020.63;4952051;28;20026;-31
2021/03/15 05:20:12;;;;;;;1.05;0.50;;;;;;;25.01;30.41;96022.41;4957359;28;20718;-32
2021/03/15 05:22:38;;;;;;;0.43;0.20;;;;;;;25.00;30.23;96015.50;4982632;28;20077;-31
2021/03/15 05:25:05;;;;;;;0.55;0.40;;;;;;;25.01;30.19;96014.53;4977301;28;20034;-32
2021/03/15 05:27:31;;;;;;;0.30;0.30;;;;;;;25.00;30.23;96017.25;4943841;28;20117;-30
2021/03/15 05:29:59;;;;;;;0.70;0.40;;;;;;;25.00;30.20;96012.88;4979811;28;20037;-31
2021/03/15 05:32:27;;;;;;;0.47;0.35;;;;;;;24.98;30.49;96009.47;4959263;28;20050;-31
2021/03/15 05:34:53;;;;;;;0.32;0.30;;;;;;;25.00;30.41;96012.00;4977861;28;20427;-31
2021/03/15 05:37:18;;;;;;;0.73;0.40;;;;;;;25.00;30.32;96007.63;4974683;28;20026;-33
2021/03/15 05:39:44;;;;;;;0.20;0.20;;;;;;;25.00;30.21;96005.00;4980489;28;20372;-31
2021/03/15 05:42:24;;;;;;;1.58;0.60;;;;;;;25.00;30.21;96005.00;4975621;28;20038;-31
2021/03/15 05:45:10;;;;;;;0.82;0.32;;;;;;;25.00;30.27;95997.13;4970724;28;20045;-31
2021/03/15 05:47:48;;;;;;;0.55;0.35;;;;;;;25.00;30.48;95999.75;4968986;28;20050;-32
2021/03/15 05:50:55;;;;;;;0.30;0.20;;;;;;;24.98;30.32;95993.75;4967409;28;20030;-31
2021/03/15 05:53:57;;;;;;;0.98;0.40;;;;;;;25.00;30.34;95991.03;4970100;28;20041;-32
2021/03/15 05:56:23;;;;;;;1.02;0.30;;;;;;;25.00;30.42;95991.91;4969374;28;20034;-30
2021/03/15 05:59:16;;;;;;;1.65;0.40;;;;;;;24.99;30.38;95984.13;4972047;28;20092;-32
2021/03/15 06:01:51;;;;;;;0.40;0.30;;;;;;;24.98;30.50;95975.41;4950997;28;22089;-33
2021/03/15 06:04:45;;;;;;;0.50;0.20;;;;;;;24.97;30.29;95976.34;4967736;28;20034;-31
2021/03/15 06:07:19;;;;;;;0.35;0.20;;;;;;;24.98;30.33;95970.16;4969776;28;20026;-30
2021/03/15 06:10:06;;;;;;;0.70;0.40;;;;;;;24.99;30.40;95973.63;4966586;28;20026;-31
2021/03/15 06:12:52;;;;;;;2.10;0.43;;;;;;;24.99;30.45;95965.78;4965992;28;20030;-31
2021/03/15 06:15:39;;;;;;;0.50;0.30;;;;;;;24.98;30.22;95967.53;4970137;28;20029;-33
2021/03/15 06:18:07;;;;;;;1.25;0.47;;;;;;;25.00;30.19;95970.94;4991082;28;20033;-32
2021/03/15 06:20:33;;;;;;;0.82;0.30;;;;;;;25.00;30.23;95959.59;4992844;28;20025;-32
2021/03/15 06:23:02;;;;;;;1.13;0.32;;;;;;;24.99;30.38;95966.63;4990569;28;20030;-31
2021/03/15 06:25:27;;;;;;;0.73;0.40;;;;;;;25.01;30.29;95961.25;4989521;28;20045;-34
2021/03/15 06:27:53;;;;;;;1.52;0.30;;;;;;;25.01;30.59;95956.88;4970360;28;20777;-30
2021/03/15 06:30:20;;;;;;;0.60;0.40;;;;;;;25.01;30.36;95951.63;4971038;28;20029;-31
2021/03/15 06:32:55;;;;;;;0.50;0.35;;;;;;;25.02;30.21;95947.25;4969377;28;20025;-33
2021/03/15 06:35:23;;;;;;;0.80;0.22;;;;;;;25.01;30.45;95941.16;4952899;28;20490;-31
2021/03/15 06:37:49;;;;;;;1.05;0.22;;;;;;;25.02;30.20;95937.59;4953141;28;20039;-32
2021/03/15 06:40:17;;;;;;;0.40;0.25;;;;;;;25.03;30.42;95938.44;4932925;28;20041;-31
2021/03/15 06:42:42;;;;;;;0.50;0.30;;;;;;;25.03;30.23;95938.44;4966953;28;20756;-32
2021/03/15 06:45:13;;;;;;;0.30;0.30;;;;;;;25.03;30.31;95930.56;4955197;28;20034;-32
2021/03/15 06:47:42;;;;;;;0.82;0.30;;;;;;;25.04;30.16;95927.84;4969845;28;20065;-31
2021/03/15 06:50:11;;;;;;;1.35;0.50;;;;;;;25.04;30.48;95914.75;4969642;28;20031;-31
2021/03/15 06:52:51;;;;;;;1.15;0.45;;;;;;;25.05;30.19;95920.81;4967896;28;20725;-31
2021/03/15 06:55:20;;;;;;;0.90;0.50;;;;;;;25.05;30.28;95921.66;4969511;28;20057;-32
2021/03/15 06:57:46;;;;;;;0.52;0.35;;;;;;;25.05;30.16;95919.03;4969518;28;20529;-31
2021/03/15 07:00:12;;;;;;;0.50;0.30;;;;;;;25.06;30.31;95914.66;4968888;28;20034;-30
2021/03/15 07:02:37;;;;;;;0.95;0.30;;;;;;;25.06;30.25;95912.03;4963804;28;20053;-30
2021/03/15 07:05:13;;;;;;;2.78;0.30;;;;;;;25.08;30.17;95909.28;4966796;28;20033;-32
2021/03/15 07:07:47;;;;;;;0.38;0.10;;;;;;;25.07;30.38;95907.63;4964844;28;20039;-30
2021/03/15 07:10:17;;;;;;;2.00;0.40;;;;;;;25.08;30.47;95911.91;4951120;28;20031;-33
2021/03/15 07:12:42;;;;;;;0.88;0.30;;;;;;;25.08;30.25;95909.28;4967407;28;20080;-30
2021/03/15 07:15:08;;;;;;;1.05;0.40;;;;;;;25.08;30.46;95917.16;4968402;28;20026;-31
2021/03/15 07:17:34;;;;;;;0.32;0.10;;;;;;;25.07;30.13;95918.94;4964681;28;20597;-32
2021/03/15 07:19:59;;;;;;;0.85;0.43;;;;;;;25.08;30.18;95925.00;4942502;28;20107;-32
2021/03/15 07:22:26;;;;;;;1.60;0.20;;;;;;;25.09;30.31;95921.47;4969487;28;20188;-31
2021/03/15 07:25:08;;;;;;;1.45;0.20;;;;;;;25.11;30.28;95924.84;4967018;28;20030;-31
2021/03/15 07:27:35;;;;;;;0.60;0.30;;;;;;;25.10;30.39;95917.91;4959815;28;20426;-31
2021/03/15 07:30:31;;;;;;;3.85;0.47;;;;;;;25.11;30.28;95919.59;4966252;28;20023;-30
2021/03/15 07:32:58;;;;;;;0.73;0.20;;;;;;;25.11;30.38;95922.22;4987380;28;20104;-31
2021/03/15 07:35:36;;;;;;;4.00;0.43;;;;;;;25.12;30.34;95918.66;4987645;28;20026;-31
2021/03/15 07:38:02;;;;;;;4.95;1.00;;;;;;;25.12;30.30;95916.03;4991212;28;20852;-31
2021/03/15 07:40:34;;;;;;;2.25;0.60;;;;;;;25.13;30.38;95917.72;4991067;28;20069;-32
2021/03/15 07:43:09;;;;;;;;;;;;;;;25.12;29.97;95923.88;4990227;28;20031;-34
2021/03/15 07:45:38;;;;;;;1.67;0.50;;;;;;;25.13;30.20;95922.97;4994626;28;19933;-33
2021/03/15 07:48:11;;;;;;;0.77;0.30;;;;;;;25.11;30.22;95925.69;4998236;28;20136;-31
2021/03/15 07:50:37;;;;;;;8.65;0.52;;;;;;;25.12;30.15;95931.75;4997646;28;20018;-31
2021/03/15 07:53:03;;;;;;;0.88;0.32;;;;;;;25.11;30.03;95927.44;4998951;28;20053;-32
2021/03/15 07:55:39;;;;;;;1.55;0.57;;;;;;;25.10;30.05;95928.41;4995634;28;20036;-30
2021/03/15 07:58:27;;;;;;;1.38;0.30;;;;;;;25.10;30.35;95938.88;4994453;28;20037;-31
2021/03/15 08:00:56;;;;;;;2.63;0.50;;;;;;;25.11;30.22;95943.19;4988445;28;20054;-31
2021/03/15 08:03:22;;;;;;;2.58;0.40;;;;;;;25.10;30.22;95933.66;4977024;28;20065;-32
2021/03/15 08:05:48;;;;;;;1.73;0.50;;;;;;;25.11;30.34;95927.44;4960358;28;20121;-31
2021/03/15 08:08:14;;;;;;;3.75;0.50;;;;;;;25.10;30.34;95939.75;4976550;28;20374;-33
2021/03/15 08:10:41;;;;;;;1.40;0.40;;;;;;;25.10;30.49;95938.88;4960672;28;21523;-31
2021/03/15 08:13:08;;;;;;;1.33;0.57;;;;;;;25.10;30.24;95929.25;4958299;28;20042;-30
2021/03/15 08:15:33;;;;;;;1.17;0.40;;;;;;;25.11;30.42;95936.16;4979775;28;21351;-33
2021/03/15 08:17:59;;;;;;;1.17;0.50;;;;;;;25.11;30.49;95940.56;4977548;28;20022;-31
2021/03/15 08:20:24;;;;;;;1.17;0.40;;;;;;;25.12;30.51;95945.72;4980071;28;20030;-32
2021/03/15 08:22:51;;;;;;;5.82;0.45;;;;;;;25.14;30.38;95945.63;4966787;28;20026;-32
2021/03/15 08:25:17;;;;;;;4.15;0.40;;;;;;;25.14;30.34;95948.25;4996512;28;20033;-30
2021/03/15 08:27:42;;;;;;;2.60;0.40;;;;;;;25.15;30.25;95947.28;4998108;28;20044;-31
2021/03/15 08:30:20;;;;;;;0.68;0.30;;;;;;;25.15;30.44;95957.78;5005101;28;20097;-32
2021/03/15 08:32:45;;;;;;;3.65;0.50;;;;;;;25.16;30.64;95944.56;4981476;28;20077;-31
2021/03/15 08:35:14;;;;;;;1.40;0.45;;;;;;;25.18;30.78;95952.34;4975703;28;20037;-33
2021/03/15 08:38:05;;;;;;;1.15;0.20;;;;;;;25.19;30.68;95951.41;4976377;28;20160;-32
2021/03/15 08:40:46;;;;;;;1.08;0.38;;;;;;;25.19;30.70;95959.28;4993602;28;20030;-32
2021/03/15 08:43:17;;;;;;;1.27;0.30;;;;;;;25.21;30.84;95965.28;4993900;28;20030;-31
2021/03/15 08:46:17;;;;;;;0.30;0.30;;;;;;;25.22;30.71;95963.47;4994618;28;20771;-33
2021/03/15 08:48:45;;;;;;;1.13;0.40;;;;;;;25.22;30.62;95961.72;4993879;28;20409;-33
2021/03/15 08:51:35;;;;;;;0.77;0.30;;;;;;;25.22;30.68;95963.47;4994457;28;20121;-32
2021/03/15 08:54:04;;;;;;;0.40;0.32;;;;;;;25.22;30.72;95961.72;4987828;28;20673;-31
2021/03/15 08:56:29;;;;;;;0.47;0.30;;;;;;;25.23;30.73;95976.50;4994884;28;20028;-31
2021/03/15 08:58:58;;;;;;;1.25;0.40;;;;;;;25.24;30.68;95967.69;4994908;28;20061;-32
2021/03/15 09:01:42;;;;;;;2.72;0.30;;;;;;;25.24;30.94;95978.16;4993578;28;20054;-34
2021/03/15 09:04:08;;;;;;;0.85;0.40;;;;;;;25.26;30.78;95975.44;4992731;28;20513;-31
2021/03/15 09:06:33;;;;;;;1.35;0.30;;;;;;;25.25;30.93;95974.59;4975945;28;20033;-32
2021/03/15 09:08:59;;;;;;;0.70;0.32;;;;;;;25.25;30.77;95977.22;4994387;28;20120;-32
2021/03/15 09:11:34;;;;;;;0.38;0.30;;;;;;;25.26;30.70;95972.81;4998906;28;20041;-29
2021/03/15 09:14:22;;;;;;;1.08;0.40;;;;;;;25.27;30.56;95977.97;5002620;28;20040;-31
2021/03/15 09:16:58;;;;;;;17.70;1.77;;;;;;;25.26;29.93;95980.69;4993826;28;20053;-32
2021/03/15 09:19:23;;;;;;;1.35;0.60;;;;;;;25.19;25.38;95990.72;4997816;28;20030;-32
2021/03/15 09:21:52;;;;;;;4.68;0.50;;;;;;;25.00;24.20;95993.66;4991576;28;20638;-32
2021/03/15 09:24:49;;;;;;;1.52;0.47;;;;;;;24.76;23.80;96000.31;5005411;28;20125;-30
2021/03/15 09:27:37;;;;;;;0.52;0.30;;;;;;;24.57;24.55;95997.97;5000609;28;20445;-30
2021/03/15 09:30:02;;;;;;;19.45;0.95;;;;;;;24.46;25.42;95998.63;4992823;28;20033;-32
2021/03/15 09:32:31;;;;;;;0.30;0.30;;;;;;;24.40;25.99;95998.97;4993235;28;20038;-30
2021/03/15 09:34:58;;;;;;;0.55;0.32;;;;;;;24.37;26.50;96007.03;4993999;28;20291;-31
2021/03/15 09:37:24;;;;;;;2.40;0.43;;;;;;;24.36;26.58;96002.72;4994063;28;20053;-33
2021/03/15 09:39:49;;;;;;;1.33;0.47;;;;;;;24.37;27.09;95993.94;4979005;28;20120;-31
2021/03/15 09:42:14;;;;;;;1.08;0.40;;;;;;;24.37;27.18;95996.56;4999576;28;20026;-31
2021/03/15 09:44:41;;;;;;;5.50;0.50;;;;;;;24.39;27.27;95994.69;4964890;28;20113;-30
2021/03/15 09:47:07;;;;;;;1.10;0.40;;;;;;;24.40;27.62;95991.97;4996944;28;20566;-32
2021/03/15 09:49:39;;;;;;;1.08;0.65;;;;;;;24.44;27.51;95991.81;4994145;28;20117;-31
2021/03/15 09:52:15;;;;;;;1.58;0.60;;;;;;;24.46;27.82;95993.38;4974137;28;20411;-30
2021/03/15 09:54:45;;;;;;;12.15;0.40;;;;;;;24.49;27.75;95990.56;4989621;28;20057;-31
2021/03/15 09:57:14;;;;;;;2.17;0.35;;;;;;;24.51;28.05;95991.34;4971680;28;20029;-31
2021/03/15 09:59:42;;;;;;;4.70;0.80;;;;;;;24.55;28.18;95993.78;4986501;28;20033;-30
2021/03/15 10:02:07;;;;;;;5.80;0.95;;;;;;;24.56;28.23;95992.84;4995128;28;20053;-32
2021/03/15 10:04:37;;;;;;;6.60;0.90;;;;;;;24.59;28.10;95993.47;4974511;28;20072;-31
2021/03/15 10:07:07;;;;;;;3.03;1.20;;;;;;;24.61;28.04;95996.00;4988658;28;20029;-30
2021/03/15 10:09:38;;;;;;;9.88;1.83;;;;;;;24.63;28.17;95991.50;4992069;28;20668;-32
2021/03/15 10:12:03;;;;;;;15.52;2.85;;;;;;;24.64;28.15;95998.44;4999084;28;20049;-31
2021/03/15 10:14:29;;;;;;;15.75;3.13;;;;;;;24.66;28.55;96004.41;4976447;28;20566;-31
2021/03/15 10:16:55;;;;;;;13.27;3.13;;;;;;;24.67;28.43;96006.09;4999901;28;20053;-31
2021/03/15 10:19:22;;;;;;;13.88;2.90;;;;;;;24.67;28.55;96006.94;4985440;28;20033;-32
2021/03/15 10:21:47;;;;;;;14.38;2.97;;;;;;;24.68;28.43;96010.44;4990860;28;20041;-32
2021/03/15 10:24:13;;;;;;;17.30;3.42;;;;;;;24.69;28.53;96009.47;4985569;28;20022;-32
2021/03/15 10:26:38;;;;;;;11.68;3.28;;;;;;;24.69;28.76;96014.72;5004752;28;20401;-32
2021/03/15 10:29:03;;;;;;;21.70;3.17;;;;;;;24.69;29.01;96011.25;5002533;28;20034;-30
2021/03/15 10:31:29;;;;;;;11.38;2.90;;;;;;;24.72;28.97;96013.69;4996318;28;20673;-31
2021/03/15 10:33:54;;;;;;;15.60;3.38;;;;;;;24.72;28.78;96011.06;5002624;28;20029;-31
2021/03/15 10:36:20;;;;;;;9.10;3.00;;;;;;;24.73;29.00;96025.84;4962002;28;20038;-32
2021/03/15 10:38:47;;;;;;;9.20;2.60;;;;;;;24.72;28.94;96024.16;4999570;28;20266;-32
2021/03/15 10:41:12;;;;;;;9.88;2.33;;;;;;;24.73;28.95;96021.47;4979074;28;20953;-33
2021/03/15 10:43:38;;;;;;;8.73;2.70;;;;;;;24.74;29.14;96022.28;4965898;28;20037;-32
2021/03/15 10:46:18;;;;;;;9.90;2.50;;;;;;;24.74;29.14;96019.66;4986402;28;20073;-31
2021/03/15 10:48:44;;;;;;;10.32;2.47;;;;;;;24.74;28.97;96023.13;4999115;28;20585;-32
2021/03/15 10:51:09;;;;;;;11.35;2.53;;;;;;;24.75;29.19;96027.44;4976922;28;20053;-35
2021/03/15 10:53:49;;;;;;;8.55;2.15;;;;;;;24.75;29.05;96024.81;5005683;28;20022;-32
2021/03/15 10:56:18;;;;;;;8.98;2.47;;;;;;;24.75;29.29;96032.69;5002445;28;20043;-31
2021/03/15 10:58:44;;;;;;;6.05;2.33;;;;;;;24.76;29.09;96026.53;5000989;28;20479;-32
2021/03/15 11:01:09;;;;;;;6.28;1.95;;;;;;;24.76;29.00;96029.16;4997924;28;20112;-31
2021/03/15 11:03:34;;;;;;;7.28;1.70;;;;;;;24.75;29.34;96027.44;5004372;28;20026;-31
2021/03/15 11:06:10;;;;;;;7.82;1.90;;;;;;;24.78;29.34;96035.13;4997032;28;20026;-31
2021/03/15 11:08:35;;;;;;;8.23;1.90;;;;;;;24.77;29.34;96028.19;5003688;28;20610;-31
2021/03/15 11:11:13;;;;;;;7.63;1.95;;;;;;;24.79;29.50;96035.97;5006381;28;20112;-31
2021/03/15 11:13:45;;;;;;;3.50;1.60;;;;;;;24.79;29.38;96042.03;5001459;28;20030;-31
2021/03/15 11:16:21;;;;;;;7.78;1.90;;;;;;;24.79;29.49;96039.41;5009106;28;20066;-31
2021/03/15 11:19:04;;;;;;;8.57;1.83;;;;;;;24.81;29.26;96049.81;4986878;28;20060;-29
2021/03/15 11:21:33;;;;;;;5.57;1.83;;;;;;;24.80;29.28;96043.72;4988254;28;20383;-31
2021/03/15 11:23:59;;;;;;;5.35;1.92;;;;;;;24.81;29.31;96060.28;5006738;28;20394;-32
2021/03/15 11:26:25;;;;;;;4.72;1.85;;;;;;;24.82;29.60;96048.88;5003063;28;20025;-31
2021/03/15 11:28:57;;;;;;;5.60;1.55;;;;;;;24.82;29.37;96061.16;5003716;28;20029;-30
2021/03/15 11:31:29;;;;;;;;;;;;;;;24.84;29.60;96067.16;5002220;28;20168;-32
2021/03/15 11:33:58;;;;;;;;;;;;;;;24.84;29.48;96059.28;5006994;28;19919;-32
2021/03/15 11:36:24;;;;;;;4.03;1.58;;;;;;;24.84;29.59;96062.78;4989903;28;19917;-33
2021/03/15 11:38:56;;;;;;;3.95;1.40;;;;;;;24.84;29.50;96061.91;5007392;28;20018;-32
2021/03/15 11:41:23;;;;;;;3.03;1.10;;;;;;;24.83;29.66;96061.06;4980133;28;20041;-31
2021/03/15 11:43:48;;;;;;;2.58;1.20;;;;;;;24.83;29.63;96063.69;5003089;28;20034;-31
2021/03/15 11:46:14;;;;;;;5.95;1.08;;;;;;;24.84;29.71;96064.53;5007515;28;20318;-30